createdAt,value
2022-11-08T00:02:24.321Z,11.43
2022-11-08T00:04:53.444Z,12.07
2022-11-08T00:07:38.801Z,11.67
2022-11-08T00:10:25.074Z,11.73
2022-11-08T00:13:10.510Z,10.90
2022-11-08T00:15:38.927Z,10.73
2022-11-08T00:18:07.308Z,10.07
2022-11-08T00:20:36.370Z,10.73
2022-11-08T00:23:04.596Z,10.10
2022-11-08T00:25:32.254Z,11.03
2022-11-08T00:27:59.936Z,11.13
2022-11-08T00:30:27.613Z,10.80
2022-11-08T00:32:55.550Z,10.70
2022-11-08T00:35:23.243Z,10.40
2022-11-08T00:37:52.282Z,11.43
2022-11-08T00:40:19.974Z,10.70
2022-11-08T00:42:47.584Z,10.90
2022-11-08T00:45:15.356Z,9.90
2022-11-08T00:47:43.025Z,10.77
2022-11-08T00:50:11.155Z,9.40
2022-11-08T00:52:39.113Z,9.80
2022-11-08T00:55:09.136Z,10.03
2022-11-08T00:57:57.915Z,9.00
2022-11-08T01:00:24.685Z,9.07
2022-11-08T01:03:13.134Z,8.40
2022-11-08T01:05:41.201Z,8.40
2022-11-08T01:08:09.374Z,8.73
2022-11-08T01:10:38.620Z,7.83
2022-11-08T01:13:06.324Z,8.40
2022-11-08T01:15:36.287Z,8.60
2022-11-08T01:18:04.058Z,8.27
2022-11-08T01:20:32.009Z,8.57
2022-11-08T01:22:59.706Z,8.70
2022-11-08T01:25:27.385Z,7.87
2022-11-08T01:27:56.420Z,8.50
2022-11-08T01:30:24.205Z,9.27
2022-11-08T01:32:51.871Z,8.87
2022-11-08T01:35:19.554Z,8.47
2022-11-08T01:37:47.220Z,8.07
2022-11-08T01:40:15.048Z,8.43
2022-11-08T01:42:42.664Z,8.27
2022-11-08T01:45:12.743Z,8.07
2022-11-08T01:47:40.461Z,8.33
2022-11-08T01:50:10.016Z,8.10
2022-11-08T01:52:39.589Z,8.13
2022-11-08T01:55:13.830Z,8.07
2022-11-08T01:57:46.766Z,7.83
2022-11-08T02:00:17.227Z,7.87
2022-11-08T02:02:47.180Z,7.53
2022-11-08T02:05:26.156Z,7.33
2022-11-08T02:07:56.493Z,7.60
2022-11-08T02:10:27.585Z,7.20
2022-11-08T02:12:55.661Z,7.57
2022-11-08T02:15:26.205Z,7.63
2022-11-08T02:17:54.433Z,7.60
2022-11-08T02:20:22.275Z,7.27
2022-11-08T02:22:53.474Z,7.77
2022-11-08T02:25:22.538Z,7.50
2022-11-08T02:27:50.156Z,7.27
2022-11-08T02:30:17.885Z,7.13
2022-11-08T02:32:47.131Z,7.07
2022-11-08T02:35:16.698Z,7.03
2022-11-08T02:37:44.436Z,7.00
2022-11-08T02:40:12.614Z,8.00
2022-11-08T02:42:42.077Z,7.77
2022-11-08T02:45:10.558Z,7.20
2022-11-08T02:47:38.231Z,7.73
2022-11-08T02:50:06.895Z,7.70
2022-11-08T02:52:34.555Z,8.20
2022-11-08T02:55:02.237Z,7.73
2022-11-08T02:57:30.047Z,7.77
2022-11-08T02:59:59.084Z,7.40
2022-11-08T03:02:26.912Z,6.73
2022-11-08T03:04:54.722Z,7.87
2022-11-08T03:07:25.030Z,6.90
2022-11-08T03:09:52.856Z,7.80
2022-11-08T03:12:20.869Z,7.50
2022-11-08T03:14:48.836Z,7.40
2022-11-08T03:17:17.872Z,7.33
2022-11-08T03:19:45.604Z,6.73
2022-11-08T03:22:13.295Z,6.40
2022-11-08T03:24:41.582Z,6.90
2022-11-08T03:27:09.329Z,6.90
2022-11-08T03:29:37.061Z,6.30
2022-11-08T03:32:06.055Z,6.00
2022-11-08T03:34:35.116Z,6.50
2022-11-08T03:37:02.800Z,6.60
2022-11-08T03:39:30.481Z,6.30
2022-11-08T03:41:59.674Z,6.20
2022-11-08T03:44:27.436Z,6.60
2022-11-08T03:46:55.148Z,6.27
2022-11-08T03:49:22.809Z,6.50
2022-11-08T03:51:52.010Z,6.30
2022-11-08T03:54:19.731Z,6.20
2022-11-08T03:56:47.412Z,5.97
2022-11-08T03:59:15.108Z,5.90
2022-11-08T04:01:42.907Z,5.77
2022-11-08T04:04:10.902Z,6.13
2022-11-08T04:06:39.430Z,5.93
2022-11-08T04:09:08.470Z,5.83
2022-11-08T04:11:53.659Z,5.37
2022-11-08T04:14:38.936Z,5.80
2022-11-08T04:17:06.621Z,5.63
2022-11-08T04:19:51.882Z,5.50
2022-11-08T04:22:19.560Z,6.23
2022-11-08T04:24:48.584Z,5.23
2022-11-08T04:27:16.306Z,5.53
2022-11-08T04:32:28.769Z,5.40
2022-11-08T04:34:56.477Z,5.27
2022-11-08T04:37:24.166Z,5.70
2022-11-08T04:39:53.182Z,5.27
2022-11-08T04:42:20.850Z,5.80
2022-11-08T04:44:48.488Z,5.67
2022-11-08T04:47:16.148Z,5.77
2022-11-08T04:49:43.981Z,5.60
2022-11-08T04:52:11.641Z,6.13
2022-11-08T04:54:39.327Z,5.70
2022-11-08T04:57:08.324Z,5.33
2022-11-08T04:59:36.193Z,5.90
2022-11-08T05:02:04.136Z,5.73
2022-11-08T05:04:31.914Z,5.50
2022-11-08T05:06:59.520Z,5.63
2022-11-08T05:09:27.195Z,5.50
2022-11-08T05:11:54.913Z,5.40
2022-11-08T05:14:25.106Z,5.97
2022-11-08T05:16:53.169Z,5.30
2022-11-08T05:19:40.847Z,5.17
2022-11-08T05:22:26.672Z,4.97
2022-11-08T05:24:54.374Z,4.67
2022-11-08T05:27:22.048Z,5.03
2022-11-08T05:32:41.196Z,4.67
2022-11-08T05:35:09.014Z,4.90
2022-11-08T05:37:36.727Z,4.73
2022-11-08T05:40:04.954Z,4.83
2022-11-08T05:42:32.609Z,4.87
2022-11-08T05:45:02.962Z,4.67
2022-11-08T05:47:34.349Z,4.50
2022-11-08T05:50:07.080Z,4.33
2022-11-08T05:52:34.788Z,4.33
2022-11-08T05:55:02.575Z,4.47
2022-11-08T05:57:30.598Z,4.33
2022-11-08T05:59:58.290Z,4.40
2022-11-08T06:02:26.085Z,4.03
2022-11-08T06:04:53.871Z,4.43
2022-11-08T06:07:22.905Z,4.63
2022-11-08T06:09:50.727Z,4.50
2022-11-08T06:12:18.977Z,4.20
2022-11-08T06:14:46.653Z,4.00
2022-11-08T06:17:14.394Z,4.23
2022-11-08T06:19:42.040Z,3.63
2022-11-08T06:22:09.835Z,4.07
2022-11-08T06:24:38.922Z,3.87
2022-11-08T06:27:06.919Z,3.87
2022-11-08T06:29:34.553Z,3.97
2022-11-08T06:32:02.264Z,3.73
2022-11-08T06:34:29.964Z,3.43
2022-11-08T06:36:59.354Z,3.67
2022-11-08T06:39:27.148Z,3.60
2022-11-08T06:41:56.368Z,3.90
2022-11-08T06:44:24.062Z,3.63
2022-11-08T06:46:51.739Z,3.37
2022-11-08T06:49:19.385Z,3.37
2022-11-08T06:51:47.073Z,3.60
2022-11-08T06:54:17.805Z,3.60
2022-11-08T06:56:45.968Z,3.60
2022-11-08T06:59:15.017Z,3.33
2022-11-08T07:01:45.683Z,3.30
2022-11-08T07:04:13.722Z,3.50
2022-11-08T07:06:41.381Z,3.80
2022-11-08T07:09:09.275Z,3.57
2022-11-08T07:11:36.977Z,3.60
2022-11-08T07:14:04.660Z,3.80
2022-11-08T07:16:33.721Z,3.70
2022-11-08T07:19:01.444Z,3.10
2022-11-08T07:21:29.164Z,3.53
2022-11-08T07:23:56.881Z,3.30
2022-11-08T07:26:24.500Z,3.37
2022-11-08T07:28:52.223Z,3.27
2022-11-08T07:31:20.031Z,3.30
2022-11-08T07:33:49.263Z,3.53
2022-11-08T07:36:17.069Z,3.03
2022-11-08T07:38:44.778Z,3.30
2022-11-08T07:41:12.573Z,3.07
2022-11-08T07:43:40.255Z,3.17
2022-11-08T07:46:08.382Z,2.93
2022-11-08T07:48:36.559Z,2.97
2022-11-08T07:51:05.703Z,2.87
2022-11-08T07:53:33.424Z,2.97
2022-11-08T07:56:01.084Z,3.23
2022-11-08T07:58:28.745Z,2.93
2022-11-08T08:01:01.337Z,2.73
2022-11-08T08:03:29.437Z,3.20
2022-11-08T08:06:01.100Z,3.07
2022-11-08T08:08:31.801Z,2.83
2022-11-08T08:11:01.638Z,3.27
2022-11-08T08:13:29.806Z,3.47
2022-11-08T08:15:59.970Z,3.50
2022-11-08T08:18:27.848Z,3.77
2022-11-08T08:20:55.606Z,3.23
2022-11-08T08:23:23.323Z,3.07
2022-11-08T08:25:52.852Z,3.03
2022-11-08T08:28:20.527Z,3.00
2022-11-08T08:30:48.408Z,3.07
2022-11-08T08:33:33.958Z,3.10
2022-11-08T08:36:02.034Z,3.50
2022-11-08T08:38:30.672Z,3.67
2022-11-08T08:41:00.161Z,3.27
2022-11-08T08:43:28.542Z,3.37
2022-11-08T08:45:56.648Z,3.20
2022-11-08T08:48:24.348Z,3.60
2022-11-08T08:50:52.261Z,3.57
2022-11-08T08:53:20.267Z,3.47
2022-11-08T08:55:48.993Z,3.67
2022-11-08T08:58:18.273Z,3.40
2022-11-08T09:03:34.954Z,3.63
2022-11-08T09:06:03.088Z,4.00
2022-11-08T09:08:31.259Z,4.00
2022-11-08T09:11:01.953Z,3.67
2022-11-08T09:13:31.851Z,4.10
2022-11-08T09:16:01.440Z,4.23
2022-11-08T09:18:30.581Z,4.37
2022-11-08T09:20:59.912Z,3.87
2022-11-08T09:23:29.150Z,4.20
2022-11-08T09:26:01.411Z,4.40
2022-11-08T09:28:32.395Z,4.53
2022-11-08T09:31:04.537Z,4.30
2022-11-08T09:33:32.377Z,4.53
2022-11-08T09:36:01.354Z,4.70
2022-11-08T09:38:29.328Z,4.60
2022-11-08T09:41:16.796Z,5.40
2022-11-08T09:43:54.351Z,4.93
2022-11-08T09:46:29.039Z,4.77
2022-11-08T09:48:58.063Z,5.07
2022-11-08T09:51:25.899Z,4.93
2022-11-08T09:53:55.452Z,5.20
2022-11-08T09:56:26.193Z,5.37
2022-11-08T09:59:01.846Z,5.23
2022-11-08T10:01:31.298Z,5.80
2022-11-08T10:04:00.838Z,5.50
2022-11-08T10:06:42.207Z,5.73
2022-11-08T10:09:24.832Z,5.93
2022-11-08T10:12:02.657Z,5.40
2022-11-08T10:14:48.101Z,5.10
2022-11-08T10:17:52.390Z,6.43
2022-11-08T10:20:25.960Z,7.53
2022-11-08T10:22:56.937Z,7.07
2022-11-08T10:25:27.372Z,6.37
2022-11-08T10:27:57.535Z,6.87
2022-11-08T10:30:28.933Z,6.50
2022-11-08T10:32:57.946Z,7.43
2022-11-08T10:35:28.741Z,6.57
2022-11-08T10:37:57.248Z,7.30
2022-11-08T10:40:34.994Z,6.80
2022-11-08T10:43:09.615Z,7.80
2022-11-08T10:45:38.786Z,7.40
2022-11-08T10:48:07.232Z,7.40
2022-11-08T10:50:43.154Z,7.80
2022-11-08T10:53:18.129Z,8.07
2022-11-08T10:55:51.700Z,7.80
2022-11-08T10:58:34.083Z,8.53
2022-11-08T11:01:07.354Z,9.70
2022-11-08T11:03:35.390Z,8.70
2022-11-08T11:06:04.193Z,9.33
2022-11-08T11:08:32.515Z,8.10
2022-11-08T11:11:23.183Z,8.77
2022-11-08T11:14:07.626Z,8.03
2022-11-08T11:16:37.131Z,8.03
2022-11-08T11:19:07.015Z,8.47
2022-11-08T11:21:39.726Z,8.10
2022-11-08T11:24:10.002Z,8.60
2022-11-08T11:26:42.015Z,8.37
2022-11-08T11:29:18.597Z,7.60
2022-11-08T11:31:49.616Z,7.97
2022-11-08T11:34:44.128Z,8.70
2022-11-08T11:37:26.053Z,8.17
2022-11-08T11:40:02.268Z,8.23
2022-11-08T11:42:49.380Z,8.10
2022-11-08T11:45:20.493Z,7.47
2022-11-08T11:47:53.525Z,8.90
2022-11-08T11:50:29.856Z,8.00
2022-11-08T11:52:58.144Z,7.73
2022-11-08T11:55:30.327Z,7.73
2022-11-08T11:58:08.995Z,7.27
2022-11-08T12:00:38.548Z,7.47
2022-11-08T12:03:20.175Z,8.23
2022-11-08T12:06:04.465Z,8.07
2022-11-08T12:08:37.057Z,8.27
2022-11-08T12:11:15.729Z,9.10
2022-11-08T12:13:54.976Z,7.53
2022-11-08T12:16:27.162Z,7.70
2022-11-08T12:19:04.264Z,7.20
2022-11-08T12:21:36.909Z,7.53
2022-11-08T12:24:22.340Z,7.70
2022-11-08T12:26:55.883Z,7.93
2022-11-08T12:29:28.330Z,8.97
2022-11-08T12:32:12.440Z,8.80
2022-11-08T12:34:52.615Z,8.57
2022-11-08T12:37:28.937Z,8.53
2022-11-08T12:40:01.034Z,8.83
2022-11-08T12:42:56.098Z,8.70
2022-11-08T12:45:33.732Z,8.23
2022-11-08T12:48:06.211Z,8.70
2022-11-08T12:50:40.796Z,8.00
2022-11-08T12:53:27.925Z,8.27
2022-11-08T12:55:57.847Z,7.90
2022-11-08T12:58:34.410Z,8.70
2022-11-08T13:01:05.889Z,7.80
2022-11-08T13:03:53.270Z,9.10
2022-11-08T13:06:27.953Z,8.67
2022-11-08T13:09:00.301Z,8.50
2022-11-08T13:11:32.194Z,10.47
2022-11-08T13:14:00.369Z,11.60
2022-11-08T13:16:29.374Z,11.80
2022-11-08T13:18:58.477Z,11.50
2022-11-08T13:21:38.001Z,10.90
2022-11-08T13:24:44.344Z,10.10
2022-11-08T13:27:24.035Z,10.13
2022-11-08T13:29:52.052Z,10.80
2022-11-08T13:32:25.904Z,12.23
2022-11-08T13:35:01.004Z,12.20
2022-11-08T13:37:43.227Z,13.87
2022-11-08T13:40:30.550Z,12.80
2022-11-08T13:43:21.785Z,11.70
2022-11-08T13:45:49.795Z,12.67
2022-11-08T13:48:38.618Z,11.97
2022-11-08T13:51:27.123Z,10.27
2022-11-08T13:53:58.987Z,10.93
2022-11-08T13:56:45.669Z,12.53
2022-11-08T13:59:47.081Z,13.27
2022-11-08T14:02:36.179Z,12.17
2022-11-08T14:05:25.711Z,13.90
2022-11-08T14:08:16.415Z,14.60
2022-11-08T14:11:18.786Z,14.43
2022-11-08T14:14:01.068Z,13.87
2022-11-08T14:16:31.510Z,14.40
2022-11-08T14:19:11.516Z,13.90
2022-11-08T14:21:39.166Z,15.20
2022-11-08T14:24:07.661Z,14.93
2022-11-08T14:26:46.281Z,14.10
2022-11-08T14:29:17.084Z,14.43
2022-11-08T14:31:46.263Z,14.23
2022-11-08T14:34:31.246Z,15.83
2022-11-08T14:36:59.564Z,14.50
2022-11-08T14:39:30.167Z,14.77
2022-11-08T14:42:01.141Z,14.80
2022-11-08T14:44:29.310Z,15.70
2022-11-08T14:46:57.719Z,15.07
2022-11-08T14:49:31.851Z,15.23
2022-11-08T14:52:14.485Z,15.23
2022-11-08T14:54:43.867Z,15.23
2022-11-08T14:57:34.364Z,16.07
2022-11-08T15:00:04.786Z,16.27
2022-11-08T15:02:32.831Z,15.83
2022-11-08T15:05:00.551Z,16.63
2022-11-08T15:07:28.304Z,15.93
2022-11-08T15:09:56.322Z,16.87
2022-11-08T15:12:24.833Z,15.73
2022-11-08T15:14:57.558Z,15.77
2022-11-08T15:17:37.229Z,15.53
2022-11-08T15:20:14.549Z,14.57
2022-11-08T15:22:44.029Z,16.03
2022-11-08T15:25:21.017Z,15.30
2022-11-08T15:27:49.176Z,15.40
2022-11-08T15:30:19.907Z,15.07
2022-11-08T15:32:47.735Z,16.50
2022-11-08T15:35:25.764Z,15.30
2022-11-08T15:38:00.477Z,15.83
2022-11-08T15:40:30.505Z,15.60
2022-11-08T15:42:59.720Z,15.83
2022-11-08T15:45:32.163Z,15.13
2022-11-08T15:48:12.719Z,16.60
2022-11-08T15:50:40.477Z,16.37
2022-11-08T15:53:08.251Z,16.50
2022-11-08T15:55:38.883Z,16.13
2022-11-08T15:58:12.001Z,16.73
2022-11-08T16:00:46.310Z,17.40
2022-11-08T16:03:14.040Z,16.80
2022-11-08T16:05:41.926Z,17.10
2022-11-08T16:08:09.617Z,17.47
2022-11-08T16:10:39.875Z,17.13
2022-11-08T16:13:08.073Z,17.73
2022-11-08T16:15:36.229Z,18.03
2022-11-08T16:18:05.323Z,16.77
2022-11-08T16:20:34.572Z,18.60
2022-11-08T16:23:04.285Z,18.40
2022-11-08T16:25:35.501Z,20.90
2022-11-08T16:28:17.333Z,22.37
2022-11-08T16:30:46.967Z,20.67
2022-11-08T16:33:20.752Z,19.30
2022-11-08T16:35:48.849Z,20.07
2022-11-08T16:38:16.926Z,19.23
2022-11-08T16:40:44.809Z,18.53
2022-11-08T16:43:13.178Z,18.83
2022-11-08T16:46:04.234Z,18.67
2022-11-08T16:48:29.911Z,19.57
2022-11-08T16:51:01.332Z,19.03
2022-11-08T16:53:30.281Z,18.97
2022-11-08T16:55:57.995Z,19.10
2022-11-08T16:58:25.905Z,19.60
2022-11-08T17:00:53.777Z,21.57
2022-11-08T17:03:22.997Z,20.87
2022-11-08T17:05:52.396Z,20.20
2022-11-08T17:08:21.303Z,20.70
2022-11-08T17:10:49.243Z,19.53
2022-11-08T17:13:18.445Z,20.20
2022-11-08T17:15:46.571Z,33.17
2022-11-08T17:18:16.482Z,27.17
2022-11-08T17:20:44.888Z,24.60
2022-11-08T17:23:14.036Z,21.43
2022-11-08T17:25:43.137Z,21.57
2022-11-08T17:28:11.679Z,21.37
2022-11-08T17:30:43.904Z,20.70
2022-11-08T17:33:12.939Z,20.90
2022-11-08T17:35:44.017Z,21.27
2022-11-08T17:38:13.589Z,19.30
2022-11-08T17:40:42.557Z,20.03
2022-11-08T17:43:10.463Z,22.70
2022-11-08T17:45:38.132Z,23.17
2022-11-08T17:48:05.909Z,24.37
2022-11-08T17:50:33.657Z,24.97
2022-11-08T17:53:01.365Z,26.37
2022-11-08T17:55:30.342Z,26.70
2022-11-08T17:57:58.052Z,26.83
2022-11-08T18:00:25.808Z,28.93
2022-11-08T18:02:53.483Z,29.43
2022-11-08T18:05:21.199Z,30.70
2022-11-08T18:07:48.851Z,29.43
2022-11-08T18:10:17.314Z,26.20
2022-11-08T18:12:46.325Z,25.87
2022-11-08T18:15:14.018Z,26.17
2022-11-08T18:17:41.668Z,26.90
2022-11-08T18:20:10.583Z,24.93
2022-11-08T18:22:38.379Z,24.53
2022-11-08T18:25:06.807Z,24.33
2022-11-08T18:27:34.527Z,25.07
2022-11-08T18:30:03.553Z,26.33
2022-11-08T18:32:31.672Z,25.13
2022-11-08T18:34:59.352Z,24.27
2022-11-08T18:37:27.036Z,25.23
2022-11-08T18:39:54.741Z,25.23
2022-11-08T18:42:22.485Z,25.13
2022-11-08T18:44:50.179Z,25.43
2022-11-08T18:47:19.319Z,25.17
2022-11-08T18:49:47.393Z,25.33
2022-11-08T18:52:15.251Z,24.40
2022-11-08T18:54:43.159Z,23.00
2022-11-08T18:57:10.897Z,24.80
2022-11-08T18:59:38.622Z,22.87
2022-11-08T19:02:06.319Z,24.50
2022-11-08T19:04:35.459Z,23.60
2022-11-08T19:07:03.186Z,22.40
2022-11-08T19:09:30.995Z,22.27
2022-11-08T19:12:04.560Z,23.43
2022-11-08T19:14:35.325Z,22.67
2022-11-08T19:17:03.070Z,23.83
2022-11-08T19:19:30.771Z,24.90
2022-11-08T19:21:59.789Z,25.13
2022-11-08T19:24:27.619Z,25.10
2022-11-08T19:26:55.296Z,25.80
2022-11-08T19:29:22.998Z,24.40
2022-11-08T19:31:58.080Z,25.63
2022-11-08T19:34:26.039Z,25.00
2022-11-08T19:36:56.032Z,25.30
2022-11-08T19:39:25.657Z,24.43
2022-11-08T19:41:53.356Z,24.53
2022-11-08T19:44:21.492Z,24.20
2022-11-08T19:46:49.239Z,24.20
2022-11-08T19:49:16.920Z,28.20
2022-11-08T19:51:44.586Z,28.53
2022-11-08T19:54:14.577Z,30.03
2022-11-08T19:57:04.819Z,31.40
2022-11-08T19:59:31.471Z,30.27
2022-11-08T20:01:59.926Z,29.93
2022-11-08T20:04:27.832Z,29.83
2022-11-08T20:06:55.651Z,29.93
2022-11-08T20:09:28.949Z,30.37
2022-11-08T20:11:59.482Z,31.10
2022-11-08T20:14:27.158Z,30.47
2022-11-08T20:16:55.597Z,28.40
2022-11-08T20:19:23.679Z,28.07
2022-11-08T20:21:51.521Z,27.77
2022-11-08T20:24:19.712Z,28.27
2022-11-08T20:26:47.427Z,28.63
2022-11-08T20:29:16.453Z,27.93
2022-11-08T20:34:33.533Z,29.93
2022-11-08T20:37:01.181Z,28.53
2022-11-08T20:39:30.769Z,27.53
2022-11-08T20:41:58.507Z,28.80
2022-11-08T20:44:27.510Z,28.10
2022-11-08T20:46:55.141Z,28.87
2022-11-08T20:49:22.810Z,31.47
2022-11-08T20:51:50.445Z,34.03
2022-11-08T20:54:18.136Z,31.97
2022-11-08T20:56:45.812Z,31.53
2022-11-08T20:59:14.836Z,32.80
2022-11-08T21:01:43.878Z,31.03
2022-11-08T21:04:11.569Z,29.67
2022-11-08T21:06:39.768Z,30.90
2022-11-08T21:09:32.521Z,29.37
2022-11-08T21:11:55.853Z,28.13
2022-11-08T21:14:24.062Z,27.37
2022-11-08T21:17:22.966Z,27.70
2022-11-08T21:19:41.662Z,27.43
2022-11-08T21:22:18.227Z,26.23
2022-11-08T21:24:47.196Z,27.23
2022-11-08T21:27:15.303Z,26.10
2022-11-08T21:29:43.036Z,26.13
2022-11-08T21:35:06.830Z,25.60
2022-11-08T21:37:34.805Z,25.27
2022-11-08T21:40:02.554Z,25.63
2022-11-08T21:42:33.097Z,24.80
2022-11-08T21:45:03.252Z,24.20
2022-11-08T21:47:31.408Z,24.40
2022-11-08T21:49:59.165Z,26.10
2022-11-08T21:52:28.275Z,26.53
2022-11-08T21:54:56.018Z,26.73
2022-11-08T21:57:23.745Z,24.60
2022-11-08T21:59:51.500Z,24.73
2022-11-08T22:02:19.228Z,23.97
2022-11-08T22:04:46.928Z,24.67
2022-11-08T22:07:14.702Z,23.73
2022-11-08T22:09:44.363Z,23.40
2022-11-08T22:12:12.062Z,24.17
2022-11-08T22:14:39.762Z,24.13
2022-11-08T22:17:08.792Z,23.87
2022-11-08T22:19:36.578Z,23.67
2022-11-08T22:22:05.178Z,25.90
2022-11-08T22:24:32.916Z,26.30
2022-11-08T22:27:02.060Z,27.17
2022-11-08T22:29:29.907Z,26.67
2022-11-08T22:31:57.807Z,27.27
2022-11-08T22:34:25.520Z,26.97
2022-11-08T22:36:53.277Z,25.07
2022-11-08T22:39:21.999Z,24.20
2022-11-08T22:41:50.956Z,22.67
2022-11-08T22:44:20.953Z,21.50
2022-11-08T22:46:49.097Z,21.87
2022-11-08T22:49:17.193Z,20.77
2022-11-08T22:51:45.045Z,20.37
2022-11-08T22:54:12.966Z,19.83
2022-11-08T22:56:41.730Z,21.43
2022-11-08T22:59:09.629Z,19.20
2022-11-08T23:01:38.700Z,19.57
2022-11-08T23:04:06.653Z,18.57
2022-11-08T23:06:34.446Z,17.37
2022-11-08T23:09:02.222Z,17.57
2022-11-08T23:11:55.874Z,16.73
2022-11-08T23:14:41.268Z,16.57
2022-11-08T23:17:10.520Z,17.17
2022-11-08T23:19:55.564Z,16.80
2022-11-08T23:22:40.835Z,16.80
2022-11-08T23:25:09.064Z,16.27
2022-11-08T23:27:54.395Z,15.57
2022-11-08T23:30:39.641Z,15.70
2022-11-08T23:33:08.734Z,14.53
2022-11-08T23:35:36.533Z,16.10
2022-11-08T23:38:04.277Z,15.23
2022-11-08T23:40:49.636Z,15.70
2022-11-08T23:43:36.385Z,16.10
2022-11-08T23:46:08.367Z,15.03
2022-11-08T23:48:38.113Z,15.40
2022-11-08T23:51:06.720Z,16.13
2022-11-08T23:53:36.609Z,16.07
2022-11-08T23:56:05.095Z,16.90
2022-11-08T23:58:33.061Z,16.97
